09:06
Airports
Links
Donate
Help keep this website running!
PayPal
Bitcoin
METAR
EDLW 180850Z 17007KT 140V200 CAVOK 01/M04 Q1026
Current Weather Conditions at EDLW
VFR 08:50:00 18-02-18
Altimeter:30.30 hg
Temp:1.0°c 34°f
Dew point:-4.0°c 25°f
Wind:7 knots, 8.1 mph, 4 m/s, from 170°
Visibility:6.21 statute miles
(CAVOK)
Past METAR reports
VFR 08:20:00 18-02-18
Altimeter:30.30 hg
Temp:0.0°c 32°f
Dew point:-3.0°c 27°f
Wind:5 knots, 5.8 mph, 3 m/s, from 180°
Visibility:6.21 statute miles
(CAVOK)
EDLW 180820Z 18005KT 140V220 CAVOK 00/M03 Q1026
VFR 07:50:00 18-02-18
Altimeter:30.30 hg
Temp:0.0°c 32°f
Dew point:-4.0°c 25°f
Wind:5 knots, 5.8 mph, 3 m/s, from 160°
Visibility:6.21 statute miles
(CAVOK)
EDLW 180750Z 16005KT CAVOK M00/M04 Q1026
VFR 07:20:00 18-02-18
Altimeter:30.30 hg
Temp:-1.0°c 30°f
Dew point:-5.0°c 23°f
Wind:2 knots, 2.3 mph, 1 m/s,
Variable direction
Visibility:6.21 statute miles
(CAVOK)
EDLW 180720Z VRB02KT CAVOK M01/M05 Q1026
VFR 06:50:00 18-02-18
Altimeter:30.30 hg
Temp:-2.0°c 28°f
Dew point:-5.0°c 23°f
Wind:5 knots, 5.8 mph, 3 m/s, from 140°
Visibility:6.21 statute miles
(CAVOK)
EDLW 180650Z 14005KT CAVOK M02/M05 Q1026
VFR 06:20:00 18-02-18
Altimeter:30.30 hg
Temp:-2.0°c 28°f
Dew point:-5.0°c 23°f
Wind:8 knots, 9.2 mph, 4 m/s, from 160°
Visibility:6.21 statute miles
(CAVOK)
EDLW 180620Z 16008KT CAVOK M02/M05 Q1026
VFR 05:50:00 18-02-18
Altimeter:30.30 hg
Temp:-3.0°c 27°f
Dew point:-5.0°c 23°f
Wind:7 knots, 8.1 mph, 4 m/s, from 160°
Visibility:6.21 statute miles
(CAVOK)
EDLW 180550Z 16007KT CAVOK M03/M05 Q1026
TAF
TAF EDLW 180520Z 1806/1906 17006KT CAVOK
Forecast at EDLW
06:00 18-02-18 to 06:00 19-02-18
NSW
Wind:6 Knots from 170°
Visibility:6.21 statute miles
NSC